createdAt,value
2018-08-09T00:08:59.597Z,28.2
2018-08-09T00:18:58.850Z,28.2
2018-08-09T00:28:58.101Z,28.1
2018-08-09T00:38:57.337Z,28.2
2018-08-09T00:48:56.594Z,28.2
2018-08-09T00:58:55.835Z,28.2
2018-08-09T01:08:55.076Z,28.2
2018-08-09T01:18:54.423Z,28.2
2018-08-09T01:28:53.571Z,28.2
2018-08-09T01:38:52.816Z,28.2
2018-08-09T01:48:52.060Z,28.2
2018-08-09T01:58:51.306Z,28.2
2018-08-09T02:08:50.558Z,28.2
2018-08-09T02:18:49.799Z,28.2
2018-08-09T02:28:49.047Z,28.2
2018-08-09T02:38:48.292Z,28.2
2018-08-09T02:48:47.549Z,28.1
2018-08-09T02:58:46.783Z,28.2
2018-08-09T03:08:46.037Z,28.2
2018-08-09T03:18:45.281Z,28.2
2018-08-09T03:28:44.521Z,28.1
2018-08-09T03:38:43.767Z,28.1
2018-08-09T03:48:43.018Z,28.1
2018-08-09T03:58:42.261Z,28.1
2018-08-09T04:08:41.508Z,28.1
2018-08-09T04:18:40.758Z,28.1
2018-08-09T04:28:40.003Z,28.1
2018-08-09T04:38:39.260Z,28.1
2018-08-09T04:48:38.498Z,28.1
2018-08-09T04:58:37.754Z,28.1
2018-08-09T05:08:36.994Z,28.1
2018-08-09T05:18:36.243Z,28.2
2018-08-09T05:28:35.489Z,28.2
2018-08-09T05:38:34.736Z,28.2
2018-08-09T05:48:33.982Z,28.1
2018-08-09T05:58:33.301Z,28.2
2018-08-09T06:08:32.475Z,28.2
2018-08-09T06:18:31.721Z,28.2
2018-08-09T06:28:30.967Z,28.2
2018-08-09T06:38:30.213Z,28.2
2018-08-09T06:48:29.470Z,28.2
2018-08-09T06:58:28.706Z,28.2
2018-08-09T07:08:27.953Z,28.3
2018-08-09T07:18:27.206Z,28.3
2018-08-09T07:28:26.445Z,28.3
2018-08-09T07:38:25.692Z,28.3
2018-08-09T07:48:24.960Z,28.3
2018-08-09T07:58:24.182Z,28.3
2018-08-09T08:08:23.474Z,28.2
2018-08-09T08:18:22.679Z,28.2
2018-08-09T08:28:21.924Z,28.2
2018-08-09T08:38:21.171Z,28.3
2018-08-09T08:48:20.415Z,28.2
2018-08-09T08:58:19.659Z,28.3
2018-08-09T09:08:18.907Z,28.3
2018-08-09T09:18:18.154Z,28.3
2018-08-09T09:28:17.398Z,28.3
2018-08-09T09:38:16.648Z,28.3
2018-08-09T09:48:15.890Z,28.3
2018-08-09T09:58:15.192Z,28.3
2018-08-09T10:08:14.388Z,28.3
2018-08-09T10:18:13.634Z,28.3
2018-08-09T10:28:12.887Z,28.3
2018-08-09T10:38:12.134Z,28.3
2018-08-09T10:48:11.380Z,28.3
2018-08-09T10:58:10.633Z,28.3
2018-08-09T11:08:09.871Z,28.3
2018-08-09T11:18:09.122Z,28.3
2018-08-09T11:28:08.369Z,28.3
2018-08-09T11:38:07.613Z,28.3
2018-08-09T11:48:06.860Z,28.3
2018-08-09T11:58:06.114Z,28.3
2018-08-09T12:08:05.352Z,28.3
2018-08-09T12:18:04.604Z,28.3
2018-08-09T12:28:03.847Z,28.3
2018-08-09T12:38:03.092Z,28.3
2018-08-09T12:48:02.339Z,28.4
2018-08-09T12:58:01.586Z,28.4
2018-08-09T13:08:00.837Z,28.4
2018-08-09T13:18:00.078Z,28.4
2018-08-09T13:27:59.326Z,28.4
2018-08-09T13:37:58.611Z,28.4
2018-08-09T13:47:57.820Z,28.4
2018-08-09T13:57:57.062Z,28.4
2018-08-09T14:07:56.307Z,28.4
2018-08-09T14:17:55.552Z,28.4
2018-08-09T14:27:54.851Z,28.4
2018-08-09T14:37:54.044Z,28.4
2018-08-09T14:47:53.348Z,28.4
2018-08-09T14:57:52.536Z,28.4
2018-08-09T15:07:51.790Z,28.4
2018-08-09T15:17:51.042Z,28.4
2018-08-09T15:27:50.283Z,28.3
2018-08-09T15:37:49.580Z,28.1
2018-08-09T15:47:48.852Z,27.9
2018-08-09T15:57:48.034Z,27.9
2018-08-09T16:07:47.277Z,27.9
2018-08-09T16:17:46.528Z,27.8
2018-08-09T16:27:45.774Z,27.9
2018-08-09T16:37:45.029Z,27.9
2018-08-09T16:47:44.279Z,27.8
2018-08-09T16:57:43.565Z,27.6
2018-08-09T17:07:42.771Z,27.4
2018-08-09T17:17:42.009Z,27.3
2018-08-09T17:27:41.263Z,27.1
2018-08-09T17:37:40.507Z,27.1
2018-08-09T17:47:39.757Z,27.1
2018-08-09T17:57:39.007Z,27.1
2018-08-09T18:07:38.305Z,27.1
2018-08-09T18:17:37.508Z,27.1
2018-08-09T18:27:36.761Z,26.9
2018-08-09T18:37:36.012Z,26.9
2018-08-09T18:47:35.304Z,27.1
2018-08-09T18:57:34.510Z,27.3
2018-08-09T19:07:33.757Z,27.5
2018-08-09T19:17:33.012Z,27.6
2018-08-09T19:27:32.298Z,27.8
2018-08-09T19:37:31.554Z,27.8
2018-08-09T19:47:30.763Z,27.9
2018-08-09T19:57:29.999Z,27.9
2018-08-09T20:07:29.249Z,27.9
2018-08-09T20:17:28.503Z,27.9
2018-08-09T20:27:27.741Z,28
2018-08-09T20:37:26.991Z,28
2018-08-09T20:47:26.285Z,28.1
2018-08-09T20:57:25.482Z,28.1
2018-08-09T21:07:24.778Z,28.1
2018-08-09T21:17:23.971Z,28.1
2018-08-09T21:27:23.220Z,28.1
2018-08-09T21:37:22.466Z,28.2
2018-08-09T21:47:21.712Z,28.2
2018-08-09T21:57:20.955Z,28.2
2018-08-09T22:07:20.203Z,28.3
2018-08-09T22:17:19.445Z,28.3
2018-08-09T22:27:18.690Z,28.2
2018-08-09T22:37:17.942Z,28.2
2018-08-09T22:47:17.182Z,28.1
2018-08-09T22:57:16.430Z,28.2
2018-08-09T23:07:15.672Z,28.2
2018-08-09T23:17:14.917Z,28.1
2018-08-09T23:27:14.166Z,28.1
2018-08-09T23:37:13.410Z,28.1
2018-08-09T23:47:12.648Z,28.1
2018-08-09T23:57:11.893Z,27.9
